Time;durP1;ratioP1;P1;durP2;ratioP2;P2;SDS_P1;SDS_P2;PMS_P1;PMS_P2;Temp;Humidity;BMP_temperature;BMP_pressure;BME280_temperature;BME280_humidity;BME280_pressure;Samples;Min_cycle;Max_cycle;Signal;HPM_P1;HPM_P2
2023/03/19 00:02:12;;;;;;;130.23;89.30;;;;;;;;;;5016864;28;20025;-78
2023/03/19 00:04:37;;;;;;;113.18;81.15;;;;;;;;;;5014064;28;20022;-78
2023/03/19 00:07:03;;;;;;;95.57;70.43;;;;;;;;;;5015775;28;22549;-78
2023/03/19 00:09:28;;;;;;;84.07;57.05;;;;;;;;;;5016495;28;20029;-78
2023/03/19 00:11:53;;;;;;;66.30;47.58;;;;;;;;;;5015783;28;20021;-81
2023/03/19 00:14:19;;;;;;;83.35;57.70;;;;;;;;;;5015059;28;20474;-80
2023/03/19 00:16:45;;;;;;;106.07;70.93;;;;;;;;;;5016180;28;20044;-80
2023/03/19 00:19:10;;;;;;;105.95;71.30;;;;;;;;;;5011543;28;20112;-79
2023/03/19 00:21:35;;;;;;;109.03;73.40;;;;;;;;;;5014531;28;20025;-79
2023/03/19 00:24:01;;;;;;;112.47;79.38;;;;;;;;;;5016973;28;20021;-79
2023/03/19 00:26:30;;;;;;;178.68;113.85;;;;;;;;;;5013625;28;20033;-78
2023/03/19 00:28:56;;;;;;;100.03;65.60;;;;;;;;;;5013600;28;20323;-78
2023/03/19 00:31:22;;;;;;;93.53;64.25;;;;;;;;;;5012243;28;20084;-78
2023/03/19 00:33:47;;;;;;;100.75;64.45;;;;;;;;;;5014150;28;20022;-79
2023/03/19 00:36:15;;;;;;;113.30;71.38;;;;;;;;;;5013801;28;20029;-79
2023/03/19 00:38:40;;;;;;;59.17;40.35;;;;;;;;;;5011879;28;20399;-78
2023/03/19 00:41:06;;;;;;;39.35;28.35;;;;;;;;;;5013504;28;20036;-80
2023/03/19 00:43:31;;;;;;;52.90;39.42;;;;;;;;;;5015932;28;20321;-78
2023/03/19 00:45:57;;;;;;;58.97;44.35;;;;;;;;;;5015278;28;20068;-76
2023/03/19 00:48:22;;;;;;;77.82;55.17;;;;;;;;;;5013995;28;20122;-77
2023/03/19 00:50:48;;;;;;;65.78;43.67;;;;;;;;;;5013188;28;20025;-77
2023/03/19 00:53:13;;;;;;;62.22;40.65;;;;;;;;;;5015940;28;20029;-77
2023/03/19 00:55:39;;;;;;;69.57;46.30;;;;;;;;;;5012404;28;20030;-77
2023/03/19 00:58:05;;;;;;;112.53;80.50;;;;;;;;;;5015807;28;20778;-76
2023/03/19 01:00:31;;;;;;;117.70;82.05;;;;;;;;;;5012958;28;20033;-77
2023/03/19 01:02:57;;;;;;;112.40;75.72;;;;;;;;;;5012186;28;20086;-77
2023/03/19 01:05:22;;;;;;;55.22;40.47;;;;;;;;;;5007293;28;20108;-78
2023/03/19 01:07:47;;;;;;;61.28;41.33;;;;;;;;;;5021388;28;20037;-77
2023/03/19 01:10:13;;;;;;;126.43;83.05;;;;;;;;;;5012671;28;20056;-79
2023/03/19 01:12:38;;;;;;;83.78;58.80;;;;;;;;;;5029517;28;20102;-77
2023/03/19 01:15:05;;;;;;;92.10;64.30;;;;;;;;;;5012966;28;20022;-78
2023/03/19 01:17:31;;;;;;;93.20;65.13;;;;;;;;;;5015237;28;20481;-78
2023/03/19 01:19:56;;;;;;;83.70;59.05;;;;;;;;;;5028527;28;20163;-77
2023/03/19 01:22:21;;;;;;;79.72;54.63;;;;;;;;;;5011542;28;20021;-77
2023/03/19 01:24:47;;;;;;;77.18;56.67;;;;;;;;;;5014951;28;20334;-78
2023/03/19 01:27:12;;;;;;;68.45;50.20;;;;;;;;;;5001986;28;20756;-77
2023/03/19 01:29:37;;;;;;;66.40;45.60;;;;;;;;;;5006296;28;20064;-76
2023/03/19 01:32:03;;;;;;;68.70;48.13;;;;;;;;;;5013908;28;20100;-76
2023/03/19 01:34:28;;;;;;;95.60;65.15;;;;;;;;;;5018266;28;20022;-77
2023/03/19 01:36:54;;;;;;;74.18;47.20;;;;;;;;;;5014545;28;20403;-77
2023/03/19 01:39:19;;;;;;;73.18;47.47;;;;;;;;;;5015239;28;20041;-76
2023/03/19 01:41:44;;;;;;;72.15;54.28;;;;;;;;;;5013920;28;20034;-76
2023/03/19 01:44:23;;;;;;;91.85;57.95;;;;;;;;;;5014537;28;20033;-77
2023/03/19 01:46:49;;;;;;;54.40;40.88;;;;;;;;;;5004747;28;20046;-76
2023/03/19 01:49:15;;;;;;;44.38;33.53;;;;;;;;;;5010806;28;20099;-76
2023/03/19 01:51:42;;;;;;;39.20;31.83;;;;;;;;;;5012731;28;20079;-76
2023/03/19 01:54:11;;;;;;;53.50;40.72;;;;;;;;;;5013371;28;20022;-80
2023/03/19 01:56:37;;;;;;;41.80;32.13;;;;;;;;;;5013143;28;20041;-76
2023/03/19 01:59:08;;;;;;;45.03;32.63;;;;;;;;;;5012260;28;20445;-77
2023/03/19 02:01:36;;;;;;;68.85;44.20;;;;;;;;;;5012523;28;20403;-75
2023/03/19 02:04:02;;;;;;;75.63;51.33;;;;;;;;;;5009756;28;20061;-75
2023/03/19 02:06:29;;;;;;;58.90;42.17;;;;;;;;;;5001835;28;20042;-75
2023/03/19 02:08:55;;;;;;;55.65;36.65;;;;;;;;;;5013741;28;20045;-76
2023/03/19 02:11:20;;;;;;;42.38;29.85;;;;;;;;;;5015789;28;20026;-75
2023/03/19 02:13:46;;;;;;;40.80;29.38;;;;;;;;;;5013762;28;20604;-75
2023/03/19 02:16:11;;;;;;;55.90;37.88;;;;;;;;;;5010320;28;20030;-75
2023/03/19 02:18:36;;;;;;;123.90;82.03;;;;;;;;;;5003076;28;20029;-75
2023/03/19 02:21:05;;;;;;;78.60;52.85;;;;;;;;;;5015520;28;20033;-74
2023/03/19 02:23:49;;;;;;;66.32;46.58;;;;;;;;;;5014041;28;20100;-74
2023/03/19 02:26:15;;;;;;;74.43;50.30;;;;;;;;;;5015732;28;20047;-74
2023/03/19 02:28:42;;;;;;;81.85;55.58;;;;;;;;;;5014265;28;20500;-74
2023/03/19 02:31:09;;;;;;;103.75;68.13;;;;;;;;;;5014626;28;20022;-74
2023/03/19 02:33:34;;;;;;;78.88;53.90;;;;;;;;;;5018156;28;20132;-74
2023/03/19 02:36:00;;;;;;;72.00;48.13;;;;;;;;;;5016514;28;20144;-74
2023/03/19 02:38:26;;;;;;;74.15;51.53;;;;;;;;;;5017209;28;20037;-75
2023/03/19 02:40:54;;;;;;;38.83;28.83;;;;;;;;;;5016235;28;20025;-75
2023/03/19 02:43:20;;;;;;;43.25;31.65;;;;;;;;;;5014624;28;20044;-75
2023/03/19 02:45:46;;;;;;;60.60;41.58;;;;;;;;;;5015768;28;20073;-75
2023/03/19 02:48:11;;;;;;;60.30;40.20;;;;;;;;;;5015809;28;20105;-75
2023/03/19 02:50:36;;;;;;;50.67;32.88;;;;;;;;;;5015519;28;20026;-75
2023/03/19 02:53:02;;;;;;;53.05;36.92;;;;;;;;;;5015861;28;20496;-75
2023/03/19 02:55:27;;;;;;;61.78;45.08;;;;;;;;;;5013877;28;20033;-76
2023/03/19 02:57:53;;;;;;;49.60;36.90;;;;;;;;;;5015005;28;20048;-75
2023/03/19 03:00:19;;;;;;;38.65;28.83;;;;;;;;;;5012206;28;20029;-75
2023/03/19 03:02:45;;;;;;;47.35;33.80;;;;;;;;;;5017158;28;20120;-74
2023/03/19 03:05:10;;;;;;;58.00;41.65;;;;;;;;;;5017365;28;20353;-75
2023/03/19 03:07:36;;;;;;;45.13;34.15;;;;;;;;;;5010176;28;20429;-76
2023/03/19 03:10:01;;;;;;;32.90;24.67;;;;;;;;;;5008005;28;20030;-75
2023/03/19 03:12:27;;;;;;;37.97;27.38;;;;;;;;;;5016168;28;20037;-75
2023/03/19 03:14:52;;;;;;;47.95;31.15;;;;;;;;;;5015019;28;20341;-76
2023/03/19 03:17:18;;;;;;;62.00;36.50;;;;;;;;;;5013804;28;20065;-75
2023/03/19 03:19:43;;;;;;;56.55;35.40;;;;;;;;;;5026845;28;20069;-75
2023/03/19 03:22:08;;;;;;;67.00;40.65;;;;;;;;;;5013078;28;20496;-76
2023/03/19 03:24:34;;;;;;;57.60;34.13;;;;;;;;;;5012017;28;20061;-73
2023/03/19 03:26:59;;;;;;;80.82;48.05;;;;;;;;;;5028316;28;20037;-75
2023/03/19 03:29:24;;;;;;;65.85;44.10;;;;;;;;;;5016136;28;20021;-74
2023/03/19 03:31:50;;;;;;;63.60;39.30;;;;;;;;;;5014798;28;20080;-74
2023/03/19 03:34:16;;;;;;;50.58;35.65;;;;;;;;;;5014328;28;20455;-75
2023/03/19 03:36:41;;;;;;;60.35;41.72;;;;;;;;;;5015743;28;20116;-75
2023/03/19 03:39:06;;;;;;;59.15;39.80;;;;;;;;;;5012888;28;20025;-74
2023/03/19 03:41:32;;;;;;;69.30;45.45;;;;;;;;;;5011246;28;20025;-75
2023/03/19 03:43:57;;;;;;;90.72;54.60;;;;;;;;;;5015400;28;20033;-74
2023/03/19 03:46:23;;;;;;;108.30;60.75;;;;;;;;;;5030346;28;20430;-76
2023/03/19 03:48:50;;;;;;;89.05;53.05;;;;;;;;;;5013593;28;20434;-76
2023/03/19 03:51:15;;;;;;;60.05;35.42;;;;;;;;;;5015838;28;20022;-78
2023/03/19 03:53:40;;;;;;;41.10;27.83;;;;;;;;;;5004988;28;20026;-75
2023/03/19 03:56:06;;;;;;;43.65;26.85;;;;;;;;;;5006089;28;20791;-74
2023/03/19 03:58:31;;;;;;;53.60;35.40;;;;;;;;;;5015085;28;20041;-76
2023/03/19 04:00:57;;;;;;;55.05;35.42;;;;;;;;;;5012341;28;20106;-73
2023/03/19 04:03:23;;;;;;;38.70;24.13;;;;;;;;;;5015881;28;20464;-74
2023/03/19 04:05:48;;;;;;;45.35;27.90;;;;;;;;;;5012939;28;20442;-76
2023/03/19 04:08:14;;;;;;;57.58;36.58;;;;;;;;;;5015530;28;20060;-75
2023/03/19 04:10:41;;;;;;;75.22;40.33;;;;;;;;;;5015519;28;20021;-75
2023/03/19 04:13:06;;;;;;;74.03;43.72;;;;;;;;;;5011464;28;20472;-75
2023/03/19 04:15:32;;;;;;;68.93;43.75;;;;;;;;;;5014794;28;20061;-75
2023/03/19 04:17:57;;;;;;;72.40;51.67;;;;;;;;;;5011982;28;20253;-75
2023/03/19 04:20:22;;;;;;;69.57;50.03;;;;;;;;;;5011238;28;20429;-75
2023/03/19 04:22:48;;;;;;;78.03;59.30;;;;;;;;;;5015121;28;20104;-75
2023/03/19 04:25:14;;;;;;;52.60;38.35;;;;;;;;;;5012745;28;20034;-75
2023/03/19 04:27:39;;;;;;;52.17;41.05;;;;;;;;;;5015026;28;20432;-76
2023/03/19 04:30:05;;;;;;;54.25;37.72;;;;;;;;;;5013831;28;20444;-76
2023/03/19 04:32:30;;;;;;;51.97;41.22;;;;;;;;;;5014951;28;20029;-77
2023/03/19 04:34:57;;;;;;;47.38;36.13;;;;;;;;;;5013433;28;20476;-75
2023/03/19 04:37:22;;;;;;;46.92;34.83;;;;;;;;;;5012730;28;20044;-75
2023/03/19 04:39:47;;;;;;;52.97;42.45;;;;;;;;;;5013831;28;20026;-75
2023/03/19 04:42:14;;;;;;;55.55;40.60;;;;;;;;;;5012694;28;20069;-76
2023/03/19 04:44:39;;;;;;;61.78;45.42;;;;;;;;;;5008723;28;20112;-77
2023/03/19 04:47:04;;;;;;;60.75;39.47;;;;;;;;;;4998873;28;20549;-76
2023/03/19 04:49:30;;;;;;;67.88;42.95;;;;;;;;;;5013649;28;20072;-75
2023/03/19 04:51:56;;;;;;;74.97;46.38;;;;;;;;;;5013864;28;20108;-76
2023/03/19 04:54:22;;;;;;;52.80;36.53;;;;;;;;;;4990832;28;20030;-76
2023/03/19 04:56:47;;;;;;;42.42;31.80;;;;;;;;;;4996503;28;20029;-75
2023/03/19 04:59:13;;;;;;;50.05;35.33;;;;;;;;;;5008370;28;20289;-75
2023/03/19 05:01:38;;;;;;;55.35;39.13;;;;;;;;;;5011548;28;20029;-76
2023/03/19 05:04:04;;;;;;;57.28;38.33;;;;;;;;;;5012161;28;20045;-75
2023/03/19 05:06:30;;;;;;;43.20;31.30;;;;;;;;;;5005444;28;20025;-76
2023/03/19 05:08:55;;;;;;;45.28;30.60;;;;;;;;;;5013684;28;20022;-75
2023/03/19 05:11:20;;;;;;;45.08;32.40;;;;;;;;;;5011070;28;20056;-75
2023/03/19 05:13:46;;;;;;;43.50;30.75;;;;;;;;;;5011074;28;20068;-75
2023/03/19 05:16:12;;;;;;;43.33;31.55;;;;;;;;;;5013446;28;20041;-75
2023/03/19 05:18:37;;;;;;;51.20;36.72;;;;;;;;;;5015032;28;20422;-75
2023/03/19 05:21:03;;;;;;;41.50;32.80;;;;;;;;;;5013685;28;20428;-76
2023/03/19 05:23:29;;;;;;;39.78;32.10;;;;;;;;;;5010799;28;20038;-75
2023/03/19 05:25:56;;;;;;;84.72;63.03;;;;;;;;;;5012159;28;20029;-76
2023/03/19 05:28:21;;;;;;;54.72;40.03;;;;;;;;;;5010984;28;20040;-75
2023/03/19 05:30:47;;;;;;;56.47;39.22;;;;;;;;;;5014051;28;20352;-75
2023/03/19 05:33:12;;;;;;;43.33;30.27;;;;;;;;;;5009244;28;20029;-76
2023/03/19 05:35:37;;;;;;;31.27;21.50;;;;;;;;;;5003120;28;20022;-75
2023/03/19 05:38:03;;;;;;;20.88;15.65;;;;;;;;;;5014823;28;20030;-76
2023/03/19 05:40:28;;;;;;;26.50;20.80;;;;;;;;;;5010663;28;20029;-76
2023/03/19 05:42:53;;;;;;;97.03;78.40;;;;;;;;;;5011978;28;20025;-75
2023/03/19 05:45:19;;;;;;;59.30;44.13;;;;;;;;;;5012107;28;20041;-75
2023/03/19 05:47:48;;;;;;;64.13;42.95;;;;;;;;;;4993971;28;20474;-74
2023/03/19 05:50:14;;;;;;;74.43;51.72;;;;;;;;;;5000312;28;21042;-74
2023/03/19 05:52:39;;;;;;;78.43;53.35;;;;;;;;;;5013104;28;20363;-74
2023/03/19 05:55:05;;;;;;;62.85;44.33;;;;;;;;;;5018438;28;20101;-75
2023/03/19 05:57:31;;;;;;;76.32;56.00;;;;;;;;;;5003629;28;20341;-73
2023/03/19 05:59:56;;;;;;;191.38;127.85;;;;;;;;;;5016021;28;20061;-74
2023/03/19 06:02:21;;;;;;;151.00;102.90;;;;;;;;;;5013681;28;20447;-74
2023/03/19 06:04:47;;;;;;;106.38;72.60;;;;;;;;;;5016520;28;20025;-75
2023/03/19 06:07:12;;;;;;;233.07;162.27;;;;;;;;;;5018367;28;20048;-75
2023/03/19 06:09:37;;;;;;;97.90;73.35;;;;;;;;;;5013626;28;20045;-75
2023/03/19 06:12:02;;;;;;;69.80;49.60;;;;;;;;;;5006685;28;20429;-74
2023/03/19 06:14:28;;;;;;;89.45;63.28;;;;;;;;;;5005375;28;20030;-74
2023/03/19 06:16:53;;;;;;;134.65;99.13;;;;;;;;;;5007520;28;20467;-75
2023/03/19 06:19:20;;;;;;;217.00;154.63;;;;;;;;;;5018552;28;20060;-75
2023/03/19 06:21:45;;;;;;;238.25;164.23;;;;;;;;;;5015787;28;20022;-75
2023/03/19 06:24:10;;;;;;;196.88;142.15;;;;;;;;;;5017151;28;20040;-74
2023/03/19 06:26:36;;;;;;;123.00;89.45;;;;;;;;;;5014416;28;20063;-75
2023/03/19 06:29:01;;;;;;;101.53;72.70;;;;;;;;;;4999796;28;20092;-77
2023/03/19 06:31:27;;;;;;;88.07;61.95;;;;;;;;;;5000017;28;20799;-75
2023/03/19 06:33:55;;;;;;;93.32;71.38;;;;;;;;;;5018589;28;20030;-77
2023/03/19 06:36:20;;;;;;;112.22;83.70;;;;;;;;;;5017227;28;20041;-76
2023/03/19 06:38:46;;;;;;;112.28;87.40;;;;;;;;;;5016289;28;20068;-77
2023/03/19 06:41:11;;;;;;;110.93;84.22;;;;;;;;;;5027071;28;20042;-77
2023/03/19 06:43:36;;;;;;;94.32;73.60;;;;;;;;;;5017628;28;20029;-76
2023/03/19 06:46:03;;;;;;;83.25;65.47;;;;;;;;;;5032784;28;20052;-78
2023/03/19 06:48:28;;;;;;;83.97;67.90;;;;;;;;;;5017389;28;20420;-76
2023/03/19 06:50:54;;;;;;;80.68;63.03;;;;;;;;;;5009776;28;20053;-78
2023/03/19 06:53:19;;;;;;;89.00;71.18;;;;;;;;;;5004748;28;20030;-78
2023/03/19 06:55:45;;;;;;;95.15;74.68;;;;;;;;;;5005502;28;20417;-79
2023/03/19 06:58:11;;;;;;;93.63;76.30;;;;;;;;;;5015683;28;20033;-81
2023/03/19 07:00:36;;;;;;;146.75;100.15;;;;;;;;;;4998894;28;20112;-78
2023/03/19 07:03:01;;;;;;;119.30;86.45;;;;;;;;;;5015828;28;20398;-79
2023/03/19 07:05:27;;;;;;;112.32;83.60;;;;;;;;;;5012507;28;20034;-81
2023/03/19 07:07:52;;;;;;;106.03;87.63;;;;;;;;;;5029071;28;20041;-79
2023/03/19 07:10:20;;;;;;;113.13;89.13;;;;;;;;;;5010098;28;20033;-81
2023/03/19 07:12:46;;;;;;;94.28;75.15;;;;;;;;;;5017545;28;20053;-81
2023/03/19 07:15:11;;;;;;;106.40;83.57;;;;;;;;;;5015596;28;20062;-80
2023/03/19 07:17:36;;;;;;;136.00;109.38;;;;;;;;;;5016764;28;20451;-78
2023/03/19 07:20:02;;;;;;;98.22;79.47;;;;;;;;;;5009689;28;20018;-79
2023/03/19 07:22:27;;;;;;;103.70;80.30;;;;;;;;;;5008147;28;20491;-78
2023/03/19 07:24:52;;;;;;;104.00;81.00;;;;;;;;;;5015606;28;20030;-76
2023/03/19 07:27:18;;;;;;;94.22;75.20;;;;;;;;;;5016144;28;20048;-73
2023/03/19 07:29:43;;;;;;;92.63;74.90;;;;;;;;;;5013011;28;20030;-76
2023/03/19 07:32:09;;;;;;;102.47;78.25;;;;;;;;;;5015829;28;20040;-76
2023/03/19 07:34:34;;;;;;;166.18;128.77;;;;;;;;;;5014673;28;20022;-76
2023/03/19 07:37:00;;;;;;;119.60;94.30;;;;;;;;;;5003430;28;20041;-75
2023/03/19 07:39:25;;;;;;;140.85;109.88;;;;;;;;;;4999191;28;20035;-79
2023/03/19 07:41:50;;;;;;;108.85;88.25;;;;;;;;;;5003036;28;20109;-78
2023/03/19 07:44:16;;;;;;;119.90;96.00;;;;;;;;;;5012824;28;20360;-75
2023/03/19 07:46:41;;;;;;;80.20;62.70;;;;;;;;;;5004156;28;20041;-75
2023/03/19 07:49:07;;;;;;;95.78;70.10;;;;;;;;;;5011407;28;20025;-77
2023/03/19 07:51:32;;;;;;;103.20;76.05;;;;;;;;;;4998805;28;20040;-76
2023/03/19 07:53:57;;;;;;;75.78;60.05;;;;;;;;;;5003577;28;20044;-76
2023/03/19 07:56:23;;;;;;;104.63;78.88;;;;;;;;;;5014603;28;20127;-76
2023/03/19 07:58:48;;;;;;;79.85;64.95;;;;;;;;;;4995228;28;20040;-75
2023/03/19 08:01:14;;;;;;;126.53;93.90;;;;;;;;;;5001840;28;20056;-75
2023/03/19 08:03:39;;;;;;;84.40;65.80;;;;;;;;;;5015603;28;20124;-75
2023/03/19 08:06:05;;;;;;;63.67;49.92;;;;;;;;;;5014277;28;20033;-75
2023/03/19 08:08:30;;;;;;;56.35;48.47;;;;;;;;;;5013488;28;20030;-75
2023/03/19 08:10:56;;;;;;;60.45;50.55;;;;;;;;;;5001827;28;20088;-74
2023/03/19 08:13:21;;;;;;;95.75;70.82;;;;;;;;;;5014357;28;20126;-74
2023/03/19 08:15:48;;;;;;;38.10;31.30;;;;;;;;;;5004586;28;20151;-75
2023/03/19 08:18:13;;;;;;;38.95;32.88;;;;;;;;;;4997466;28;20455;-76
2023/03/19 08:20:38;;;;;;;65.00;50.92;;;;;;;;;;5014341;28;20025;-74
2023/03/19 08:23:04;;;;;;;33.42;25.25;;;;;;;;;;4988545;28;20033;-76
2023/03/19 08:25:31;;;;;;;24.25;18.92;;;;;;;;;;4991822;28;20679;-75
2023/03/19 08:27:56;;;;;;;23.70;18.85;;;;;;;;;;4993342;28;20038;-75
2023/03/19 08:30:22;;;;;;;17.10;13.77;;;;;;;;;;4986540;28;20508;-76
2023/03/19 08:32:49;;;;;;;16.65;14.93;;;;;;;;;;4996661;28;20097;-76
2023/03/19 08:35:15;;;;;;;39.67;28.85;;;;;;;;;;5009313;28;20034;-74
2023/03/19 08:37:40;;;;;;;13.73;10.88;;;;;;;;;;5000860;28;20037;-74
2023/03/19 08:40:06;;;;;;;18.45;14.30;;;;;;;;;;5006317;28;20033;-75
2023/03/19 08:42:31;;;;;;;26.63;21.00;;;;;;;;;;5008156;28;20029;-72
2023/03/19 08:44:56;;;;;;;22.02;18.42;;;;;;;;;;5001999;28;20029;-75
2023/03/19 08:47:25;;;;;;;31.38;24.00;;;;;;;;;;5011809;28;20038;-73
2023/03/19 08:49:51;;;;;;;27.77;21.05;;;;;;;;;;5011014;28;20116;-74
2023/03/19 08:52:16;;;;;;;22.45;16.88;;;;;;;;;;5011414;28;20114;-73
2023/03/19 08:54:42;;;;;;;16.83;12.05;;;;;;;;;;5005209;28;20022;-74
2023/03/19 08:57:07;;;;;;;23.35;17.65;;;;;;;;;;5002323;28;20029;-72
2023/03/19 08:59:32;;;;;;;13.82;10.18;;;;;;;;;;5007333;28;20028;-73
2023/03/19 09:01:58;;;;;;;14.88;11.93;;;;;;;;;;5003017;28;20029;-73
2023/03/19 09:04:23;;;;;;;13.63;8.32;;;;;;;;;;4995496;28;20057;-76
2023/03/19 09:06:51;;;;;;;20.38;17.50;;;;;;;;;;4994051;28;20456;-74
2023/03/19 09:09:20;;;;;;;20.00;17.83;;;;;;;;;;4995258;28;20026;-74
2023/03/19 09:11:46;;;;;;;8.05;7.22;;;;;;;;;;4995961;28;20026;-74
2023/03/19 09:14:11;;;;;;;8.82;7.93;;;;;;;;;;4997292;28;20085;-73
2023/03/19 09:16:37;;;;;;;29.13;24.88;;;;;;;;;;4998119;28;20137;-74
2023/03/19 09:19:02;;;;;;;47.83;39.30;;;;;;;;;;4998619;28;20044;-73
2023/03/19 09:21:28;;;;;;;8.07;7.22;;;;;;;;;;5001064;28;20040;-78
2023/03/19 09:23:53;;;;;;;10.52;9.45;;;;;;;;;;5005566;28;20385;-77
2023/03/19 09:26:19;;;;;;;15.45;13.48;;;;;;;;;;5006916;28;20021;-76
2023/03/19 09:28:45;;;;;;;15.15;12.55;;;;;;;;;;5005588;28;20060;-77
2023/03/19 09:31:10;;;;;;;13.75;12.20;;;;;;;;;;5008528;28;20025;-81
2023/03/19 09:33:36;;;;;;;8.45;7.03;;;;;;;;;;5017175;28;20025;-78
2023/03/19 09:36:01;;;;;;;11.45;9.38;;;;;;;;;;5014851;28;20383;-80
2023/03/19 09:38:27;;;;;;;7.32;6.50;;;;;;;;;;5006667;28;20048;-78
2023/03/19 09:40:58;;;;;;;6.32;5.57;;;;;;;;;;4999020;28;20060;-79
2023/03/19 09:43:29;;;;;;;9.27;8.35;;;;;;;;;;5005847;28;20041;-77
2023/03/19 09:45:55;;;;;;;16.33;13.82;;;;;;;;;;5004293;28;20054;-77
2023/03/19 09:48:39;;;;;;;10.25;8.10;;;;;;;;;;4992905;28;20045;-77
2023/03/19 09:51:07;;;;;;;13.27;11.52;;;;;;;;;;4993882;28;20029;-76
2023/03/19 09:53:38;;;;;;;14.77;13.18;;;;;;;;;;5002562;28;20021;-76
2023/03/19 09:56:06;;;;;;;18.80;15.73;;;;;;;;;;5017141;28;20028;-77
2023/03/19 09:58:33;;;;;;;4.55;4.15;;;;;;;;;;5002049;28;20277;-76
2023/03/19 10:00:59;;;;;;;14.13;12.63;;;;;;;;;;4999397;28;20384;-77
2023/03/19 10:03:43;;;;;;;10.77;9.68;;;;;;;;;;5001804;28;20448;-78
2023/03/19 10:06:25;;;;;;;9.57;8.68;;;;;;;;;;5002292;28;20323;-77
2023/03/19 10:09:14;;;;;;;20.33;16.90;;;;;;;;;;4998067;28;20037;-76
2023/03/19 10:12:02;;;;;;;35.05;30.67;;;;;;;;;;5002082;28;20037;-77
2023/03/19 10:14:28;;;;;;;15.95;13.35;;;;;;;;;;4993768;28;20038;-77
2023/03/19 10:16:56;;;;;;;54.10;44.50;;;;;;;;;;4999357;28;20385;-77
2023/03/19 10:19:23;;;;;;;17.50;13.80;;;;;;;;;;5000343;28;20109;-77
2023/03/19 10:21:57;;;;;;;10.07;8.52;;;;;;;;;;4999713;28;20035;-77
2023/03/19 10:24:37;;;;;;;9.38;7.55;;;;;;;;;;5002088;28;20026;-78
2023/03/19 10:27:11;;;;;;;40.05;29.80;;;;;;;;;;5000518;28;20064;-76
2023/03/19 10:29:38;;;;;;;15.20;13.57;;;;;;;;;;4998993;28;20113;-77
2023/03/19 10:32:08;;;;;;;37.40;27.08;;;;;;;;;;5013393;28;20414;-77
2023/03/19 10:34:35;;;;;;;9.93;8.02;;;;;;;;;;5017130;28;20036;-76
2023/03/19 10:37:25;;;;;;;7.20;5.85;;;;;;;;;;5003075;28;20025;-79
2023/03/19 10:39:51;;;;;;;6.18;5.47;;;;;;;;;;5006933;28;20045;-76
2023/03/19 10:42:16;;;;;;;18.80;15.00;;;;;;;;;;5002816;28;20084;-76
2023/03/19 10:44:47;;;;;;;11.02;9.35;;;;;;;;;;5005380;28;20029;-77
2023/03/19 10:47:14;;;;;;;10.35;8.75;;;;;;;;;;5001012;28;20046;-79
2023/03/19 10:49:39;;;;;;;17.73;13.50;;;;;;;;;;5006157;28;20029;-77
2023/03/19 10:52:05;;;;;;;11.55;9.57;;;;;;;;;;5014575;28;20029;-75
2023/03/19 10:54:31;;;;;;;11.88;9.02;;;;;;;;;;5004706;28;20036;-79
2023/03/19 10:56:58;;;;;;;10.93;9.20;;;;;;;;;;5013918;28;20052;-76
2023/03/19 10:59:46;;;;;;;9.38;8.38;;;;;;;;;;5018047;28;20025;-77
2023/03/19 11:02:19;;;;;;;19.13;15.98;;;;;;;;;;5015027;28;20040;-79
2023/03/19 11:04:45;;;;;;;26.58;21.95;;;;;;;;;;5004154;28;20025;-79
2023/03/19 11:07:20;;;;;;;32.03;20.30;;;;;;;;;;5003841;28;20044;-78
2023/03/19 11:09:49;;;;;;;37.08;26.40;;;;;;;;;;5001361;28;20345;-80
2023/03/19 11:12:23;;;;;;;15.77;12.40;;;;;;;;;;5005870;28;20433;-79
2023/03/19 11:14:52;;;;;;;18.55;14.05;;;;;;;;;;5004590;28;20022;-80
2023/03/19 11:17:36;;;;;;;20.20;15.90;;;;;;;;;;5005376;28;20030;-79
2023/03/19 11:20:07;;;;;;;22.33;16.55;;;;;;;;;;5002848;28;20084;-80
2023/03/19 11:22:35;;;;;;;29.05;22.95;;;;;;;;;;5004477;28;20045;-81
2023/03/19 11:25:02;;;;;;;26.80;20.80;;;;;;;;;;5004833;28;20700;-80
2023/03/19 11:27:34;;;;;;;18.55;14.75;;;;;;;;;;5006136;28;20065;-78
2023/03/19 11:30:06;;;;;;;29.50;23.42;;;;;;;;;;5007735;28;20037;-80
2023/03/19 11:32:50;;;;;;;34.55;27.50;;;;;;;;;;5004140;28;20029;-80
2023/03/19 11:35:18;;;;;;;19.80;15.30;;;;;;;;;;5004981;28;20029;-80
2023/03/19 11:37:43;;;;;;;6.27;5.67;;;;;;;;;;5011267;28;20053;-79
2023/03/19 11:40:36;;;;;;;7.73;6.60;;;;;;;;;;4999315;28;20052;-79
2023/03/19 11:43:21;;;;;;;13.77;12.27;;;;;;;;;;4996009;28;20610;-80
2023/03/19 11:46:04;;;;;;;13.23;11.85;;;;;;;;;;5002349;28;20465;-79
2023/03/19 11:48:36;;;;;;;14.25;11.85;;;;;;;;;;5003985;28;20120;-79
2023/03/19 11:51:24;;;;;;;22.00;18.38;;;;;;;;;;4999459;28;20603;-76
2023/03/19 11:53:50;;;;;;;15.40;12.80;;;;;;;;;;4994907;28;20033;-79
2023/03/19 11:56:34;;;;;;;20.75;17.33;;;;;;;;;;4995245;28;20255;-78
2023/03/19 11:58:59;;;;;;;13.23;11.43;;;;;;;;;;4996466;28;20033;-77
2023/03/19 12:01:51;;;;;;;9.05;7.95;;;;;;;;;;5000693;28;20084;-78
2023/03/19 12:04:23;;;;;;;9.00;6.43;;;;;;;;;;5001083;28;20033;-76
2023/03/19 12:07:10;;;;;;;5.00;4.45;;;;;;;;;;5001297;28;20172;-78
2023/03/19 12:09:45;;;;;;;6.13;5.18;;;;;;;;;;4999142;28;20860;-76
2023/03/19 12:12:19;;;;;;;6.72;6.07;;;;;;;;;;5002579;28;20033;-76
2023/03/19 12:14:52;;;;;;;10.77;8.15;;;;;;;;;;4999746;28;20352;-75
2023/03/19 12:17:32;;;;;;;9.57;7.22;;;;;;;;;;5016728;28;20033;-76
2023/03/19 12:20:16;;;;;;;4.82;4.32;;;;;;;;;;5015519;28;20021;-75
2023/03/19 12:22:57;;;;;;;14.40;11.48;;;;;;;;;;5009049;28;20030;-78
2023/03/19 12:25:26;;;;;;;19.73;15.50;;;;;;;;;;5013318;28;20025;-76
2023/03/19 12:28:00;;;;;;;5.45;4.00;;;;;;;;;;5005643;28;20029;-75
2023/03/19 12:30:26;;;;;;;17.80;14.18;;;;;;;;;;5009213;28;20139;-77
2023/03/19 12:33:10;;;;;;;5.95;4.68;;;;;;;;;;5007257;28;20168;-76
2023/03/19 12:35:37;;;;;;;5.15;4.72;;;;;;;;;;5026963;28;20388;-76
2023/03/19 12:38:02;;;;;;;22.58;17.02;;;;;;;;;;5017731;28;20033;-74
2023/03/19 12:40:36;;;;;;;20.70;15.45;;;;;;;;;;5000799;28;20329;-75
2023/03/19 12:43:05;;;;;;;6.57;5.88;;;;;;;;;;4990148;28;20496;-73
2023/03/19 12:45:33;;;;;;;21.00;16.20;;;;;;;;;;4993052;28;20033;-76
2023/03/19 12:48:06;;;;;;;9.52;8.15;;;;;;;;;;4990627;28;20033;-75
2023/03/19 12:50:32;;;;;;;7.38;6.60;;;;;;;;;;4988425;28;20014;-75
2023/03/19 12:52:59;;;;;;;6.88;6.13;;;;;;;;;;4993147;28;20091;-77
2023/03/19 12:55:24;;;;;;;6.72;5.70;;;;;;;;;;5001325;28;20022;-74
2023/03/19 12:57:50;;;;;;;8.85;7.95;;;;;;;;;;5001044;28;20473;-74
2023/03/19 13:00:38;;;;;;;7.47;6.53;;;;;;;;;;5006988;28;20433;-75
2023/03/19 13:03:11;;;;;;;14.40;11.68;;;;;;;;;;5009597;28;20385;-75
2023/03/19 13:05:42;;;;;;;4.80;4.35;;;;;;;;;;5014654;28;20352;-76
2023/03/19 13:08:15;;;;;;;4.28;3.88;;;;;;;;;;5010163;28;20103;-76
2023/03/19 13:10:40;;;;;;;4.93;4.47;;;;;;;;;;5001372;28;20026;-77
2023/03/19 13:13:21;;;;;;;6.57;4.65;;;;;;;;;;4998097;28;20741;-75
2023/03/19 13:15:48;;;;;;;8.40;7.47;;;;;;;;;;5011998;28;20057;-78
2023/03/19 13:18:23;;;;;;;5.57;5.07;;;;;;;;;;5003921;28;20037;-75
2023/03/19 13:21:07;;;;;;;16.48;14.63;;;;;;;;;;4999600;28;20034;-75
2023/03/19 13:23:34;;;;;;;7.43;4.63;;;;;;;;;;5000978;28;20096;-75
2023/03/19 13:26:05;;;;;;;6.43;4.97;;;;;;;;;;4997856;28;20082;-76
2023/03/19 13:28:32;;;;;;;8.85;7.75;;;;;;;;;;5010027;28;20037;-74
2023/03/19 13:31:07;;;;;;;13.82;12.38;;;;;;;;;;5000318;28;20112;-75
2023/03/19 13:33:39;;;;;;;22.77;20.35;;;;;;;;;;4999869;28;20017;-75
2023/03/19 13:36:06;;;;;;;10.77;9.15;;;;;;;;;;5023583;28;20065;-75
2023/03/19 13:38:46;;;;;;;10.00;8.98;;;;;;;;;;5012162;28;20109;-76
2023/03/19 13:41:30;;;;;;;4.60;4.20;;;;;;;;;;5008074;28;20392;-74
2023/03/19 13:43:55;;;;;;;3.63;3.33;;;;;;;;;;5004206;28;20034;-75
2023/03/19 13:46:43;;;;;;;9.98;8.98;;;;;;;;;;5006564;28;20442;-75
2023/03/19 13:49:24;;;;;;;5.55;4.57;;;;;;;;;;5012129;28;20053;-76
2023/03/19 13:51:50;;;;;;;12.43;10.57;;;;;;;;;;5013089;28;20036;-75
2023/03/19 13:54:18;;;;;;;11.30;9.60;;;;;;;;;;5011665;28;20026;-75
2023/03/19 13:57:04;;;;;;;7.85;6.85;;;;;;;;;;5013992;28;20030;-76
2023/03/19 13:59:30;;;;;;;11.57;10.40;;;;;;;;;;5013726;28;20432;-75
2023/03/19 14:01:56;;;;;;;8.25;7.45;;;;;;;;;;5002689;28;20098;-76
2023/03/19 14:04:22;;;;;;;8.73;7.22;;;;;;;;;;5013665;28;20429;-77
2023/03/19 14:06:48;;;;;;;4.95;4.20;;;;;;;;;;5013435;28;20099;-76
2023/03/19 14:09:29;;;;;;;6.30;5.70;;;;;;;;;;5014827;28;20024;-76
2023/03/19 14:11:55;;;;;;;12.52;11.32;;;;;;;;;;5014558;28;20021;-75
2023/03/19 14:14:21;;;;;;;11.48;10.27;;;;;;;;;;5016342;28;20048;-76
2023/03/19 14:16:48;;;;;;;7.35;6.75;;;;;;;;;;5019628;28;20021;-76
2023/03/19 14:19:16;;;;;;;5.40;4.72;;;;;;;;;;5017409;28;20106;-76
2023/03/19 14:22:01;;;;;;;4.53;4.20;;;;;;;;;;5016012;28;20033;-76
2023/03/19 14:24:28;;;;;;;4.25;3.85;;;;;;;;;;5019344;28;20034;-75